Newton Poppleford, United Kingdom
Current Conditions -  °F | °C
As of 12:50 PM on Thursday 30 Oct 2014 (Local Time) from EGTE Reporting Station
Broken Clouds Broken Clouds  
Wind Chill: 17°   Ceiling: 800
Heat Index: 17°   Visibility: 4mi
Dew Point: 15°   Wind: 12mph
Humidity: 88%   Direction: 160°SSE
Pressure: 30.03"   Gusts: NA
Location:  50.7°N, 3.3°W
Report Text: EGTE 301250Z 16010KT 6000 BKN008 17/15 Q1017
Loading
Personal Weather Stations






























Interactive Weather Map
Tropical Storm Tracking
New forecast layout! Learn more

10-Day Weather Forecast

Advertisements
Track Severe Weather on mobile